Time;durP1;ratioP1;P1;durP2;ratioP2;P2;SDS_P1;SDS_P2;PMS_P1;PMS_P2;Temp;Humidity;BMP_temperature;BMP_pressure;BME280_temperature;BME280_humidity;BME280_pressure;Samples;Min_cycle;Max_cycle;Signal;HPM_P1;HPM_P2
2022/09/03 00:02:13;;;;;;;0.47;0.47;;;15.80;99.90;;;;;;5038098;28;20045;-74
2022/09/03 00:05:14;;;;;;;4.22;0.60;;;15.80;99.90;;;;;;5021815;28;20041;-70
2022/09/03 00:07:56;;;;;;;0.65;0.50;;;15.80;99.90;;;;;;5017674;28;20044;-75
2022/09/03 00:10:30;;;;;;;0.40;0.40;;;15.70;99.90;;;;;;5038105;28;20048;-72
2022/09/03 00:13:01;;;;;;;1.92;0.70;;;15.90;99.90;;;;;;5037832;28;20094;-76
2022/09/03 00:15:31;;;;;;;0.40;0.40;;;15.60;99.90;;;;;;5037955;28;20428;-77
2022/09/03 00:18:04;;;;;;;0.90;0.43;;;15.60;99.90;;;;;;5021718;28;20044;-70
2022/09/03 00:21:07;;;;;;;3.67;0.38;;;15.60;99.90;;;;;;5037881;28;20059;-71
2022/09/03 00:23:37;;;;;;;0.50;0.40;;;15.50;99.90;;;;;;5004876;28;20060;-70
2022/09/03 00:26:12;;;;;;;1.38;0.60;;;15.50;99.90;;;;;;5037962;28;20087;-74
2022/09/03 00:28:46;;;;;;;2.17;0.52;;;15.40;99.90;;;;;;5038010;28;20052;-76
2022/09/03 00:31:17;;;;;;;0.88;0.50;;;15.40;99.90;;;;;;5037817;28;20116;-74
2022/09/03 00:33:45;;;;;;;0.60;0.60;;;15.30;99.90;;;;;;5037882;28;20048;-73
2022/09/03 00:36:19;;;;;;;1.10;0.50;;;15.30;99.90;;;;;;5037612;28;20037;-71
2022/09/03 00:38:45;;;;;;;0.60;0.50;;;15.30;99.90;;;;;;5037673;28;20527;-74
2022/09/03 00:41:40;;;;;;;0.55;0.43;;;15.40;99.90;;;;;;5037416;28;20083;-76
2022/09/03 00:44:30;;;;;;;0.70;0.40;;;15.20;99.90;;;;;;5037584;28;20102;-75
2022/09/03 00:47:07;;;;;;;1.58;0.82;;;15.20;99.90;;;;;;5037745;28;20041;-76
2022/09/03 00:49:41;;;;;;;0.60;0.60;;;15.40;99.90;;;;;;5037361;28;20068;-76
2022/09/03 00:52:47;;;;;;;0.50;0.40;;;15.20;99.90;;;;;;5020802;28;20122;-70
2022/09/03 00:55:24;;;;;;;0.63;0.50;;;15.20;99.90;;;;;;5037516;28;20124;-70
2022/09/03 00:58:11;;;;;;;0.88;0.50;;;15.10;99.90;;;;;;5036977;28;20505;-72
2022/09/03 01:00:42;;;;;;;0.65;0.50;;;15.10;99.90;;;;;;5020641;28;20072;-75
2022/09/03 01:03:12;;;;;;;0.75;0.60;;;15.10;99.90;;;;;;5037000;28;20049;-73
2022/09/03 01:06:12;;;;;;;0.60;0.50;;;15.00;99.90;;;;;;5037353;28;20041;-75
2022/09/03 01:08:44;;;;;;;3.10;0.80;;;15.00;99.90;;;;;;5020506;28;20041;-70
2022/09/03 01:11:32;;;;;;;4.03;0.40;;;15.00;99.90;;;;;;5037185;28;20044;-71
2022/09/03 01:14:25;;;;;;;0.30;0.30;;;14.90;99.90;;;;;;5036803;28;20040;-76
2022/09/03 01:16:55;;;;;;;1.52;0.70;;;14.90;99.90;;;;;;5036891;28;20056;-75
2022/09/03 01:19:51;;;;;;;0.60;0.60;;;14.90;99.90;;;;;;5020422;28;20044;-70
2022/09/03 01:22:23;;;;;;;1.15;0.50;;;14.90;99.90;;;;;;5036732;28;20041;-76
2022/09/03 01:25:00;;;;;;;0.75;0.60;;;14.90;99.90;;;;;;5020224;28;20044;-75
2022/09/03 01:27:57;;;;;;;0.73;0.57;;;14.80;99.90;;;;;;5020116;28;20143;-74
2022/09/03 01:30:23;;;;;;;0.77;0.47;;;14.80;99.90;;;;;;4997440;28;20103;-71
2022/09/03 01:33:25;;;;;;;0.43;0.40;;;14.80;99.90;;;;;;5020418;28;20041;-72
2022/09/03 01:36:15;;;;;;;0.50;0.50;;;14.70;99.90;;;;;;5036529;28;20048;-70
2022/09/03 01:38:50;;;;;;;0.40;0.40;;;14.70;99.90;;;;;;5019874;28;20113;-76
2022/09/03 01:44:47;;;;;;;1.60;0.50;;;14.60;99.90;;;;;;5036192;28;20175;-75
2022/09/03 01:47:49;;;;;;;0.60;0.60;;;14.50;99.90;;;;;;5020141;28;20045;-75
2022/09/03 01:50:20;;;;;;;;;;;14.50;99.90;;;;;;5013986;28;20102;-75
2022/09/03 01:53:02;;;;;;;0.40;0.40;;;14.50;99.90;;;;;;5036428;28;19920;-70
2022/09/03 01:55:54;;;;;;;0.50;0.40;;;14.50;99.90;;;;;;5035913;28;20052;-74
2022/09/03 01:58:32;;;;;;;0.68;0.40;;;14.40;99.90;;;;;;5035979;28;20153;-76
2022/09/03 02:01:09;;;;;;;1.33;0.70;;;14.40;99.90;;;;;;5036258;28;20414;-76
2022/09/03 02:03:41;;;;;;;0.50;0.43;;;14.40;99.90;;;;;;5019400;28;20080;-71
2022/09/03 02:06:09;;;;;;;0.45;0.40;;;14.60;99.90;;;;;;5035858;28;20423;-70
2022/09/03 02:08:35;;;;;;;0.65;0.50;;;14.30;99.90;;;;;;5035657;28;20086;-75
2022/09/03 02:11:04;;;;;;;0.63;0.50;;;14.30;99.90;;;;;;5019565;28;20033;-72
2022/09/03 02:13:34;;;;;;;0.57;0.40;;;14.30;99.90;;;;;;5036098;28;20051;-72
2022/09/03 02:16:05;;;;;;;0.93;0.63;;;14.30;99.90;;;;;;5036132;28;20084;-72
2022/09/03 02:18:35;;;;;;;2.33;0.80;;;14.40;99.90;;;;;;5035748;28;20402;-72
2022/09/03 02:21:01;;;;;;;0.30;0.30;;;14.40;99.90;;;;;;5036051;28;20053;-71
2022/09/03 02:23:27;;;;;;;0.65;0.40;;;14.40;99.90;;;;;;5018985;28;20052;-73
2022/09/03 02:25:59;;;;;;;0.38;0.38;;;14.40;99.90;;;;;;5035639;28;20032;-75
2022/09/03 02:28:27;;;;;;;1.15;0.50;;;14.40;99.90;;;;;;5035807;28;20480;-74
2022/09/03 02:30:53;;;;;;;0.55;0.55;;;14.40;99.90;;;;;;5035495;28;20072;-71
2022/09/03 02:33:19;;;;;;;0.65;0.50;;;14.40;99.90;;;;;;5019115;28;20036;-76
2022/09/03 02:35:46;;;;;;;1.88;0.57;;;14.30;99.90;;;;;;5002677;28;20052;-76
2022/09/03 02:38:27;;;;;;;0.98;0.60;;;14.30;99.90;;;;;;5035471;28;20068;-71
2022/09/03 02:40:53;;;;;;;0.63;0.52;;;14.30;99.90;;;;;;5019214;28;20048;-69
2022/09/03 02:43:43;;;;;;;0.85;0.82;;;14.30;99.90;;;;;;5018764;28;20041;-70
2022/09/03 02:46:16;;;;;;;0.93;0.50;;;14.30;99.90;;;;;;5018831;28;20094;-70
2022/09/03 02:48:41;;;;;;;0.50;0.50;;;14.40;99.90;;;;;;5035488;28;20471;-72
2022/09/03 02:51:07;;;;;;;0.45;0.40;;;14.30;99.90;;;;;;5019117;28;20080;-75
2022/09/03 02:53:33;;;;;;;4.57;0.80;;;14.30;99.90;;;;;;5035209;28;20048;-75
2022/09/03 02:56:00;;;;;;;0.60;0.60;;;14.20;99.90;;;;;;5002590;28;20547;-72
2022/09/03 02:58:26;;;;;;;1.35;0.60;;;14.30;99.90;;;;;;5002570;28;20056;-74
2022/09/03 03:00:53;;;;;;;0.52;0.47;;;14.30;99.90;;;;;;5035088;28;20123;-72
2022/09/03 03:03:19;;;;;;;0.80;0.60;;;14.50;99.90;;;;;;5035040;28;20472;-72
2022/09/03 03:05:49;;;;;;;0.55;0.55;;;14.30;99.90;;;;;;5035029;28;20230;-69
2022/09/03 03:08:15;;;;;;;0.60;0.60;;;14.30;99.90;;;;;;5035089;28;20113;-74
2022/09/03 03:10:43;;;;;;;0.50;0.50;;;14.40;99.90;;;;;;5034934;28;20120;-70
2022/09/03 03:13:10;;;;;;;1.55;0.80;;;14.40;99.90;;;;;;5018462;28;20040;-75
2022/09/03 03:15:35;;;;;;;0.57;0.57;;;14.40;99.90;;;;;;5018672;28;20488;-70
2022/09/03 03:18:01;;;;;;;1.02;0.65;;;14.40;99.90;;;;;;5034902;28;20041;-70
2022/09/03 03:20:27;;;;;;;1.15;0.60;;;14.50;99.90;;;;;;5020254;28;20109;-72
2022/09/03 03:22:53;;;;;;;0.75;0.55;;;14.50;99.90;;;;;;5038940;28;20041;-71
2022/09/03 03:25:19;;;;;;;0.35;0.35;;;14.50;99.90;;;;;;5022590;28;20538;-76
2022/09/03 03:27:45;;;;;;;1.30;0.68;;;14.50;99.90;;;;;;5006234;28;20037;-70
2022/09/03 03:30:11;;;;;;;0.95;0.60;;;14.50;99.90;;;;;;5022306;28;20385;-76
2022/09/03 03:32:37;;;;;;;2.40;0.57;;;14.50;99.90;;;;;;5005958;28;20435;-70
2022/09/03 03:35:04;;;;;;;0.93;0.50;;;14.80;99.90;;;;;;5005991;28;20094;-73
2022/09/03 03:37:31;;;;;;;3.00;0.47;;;14.60;99.90;;;;;;5038760;28;20037;-71
2022/09/03 03:39:56;;;;;;;0.40;0.40;;;14.60;99.90;;;;;;5038764;28;20051;-71
2022/09/03 03:42:22;;;;;;;0.63;0.50;;;14.60;99.90;;;;;;5038667;28;20041;-74
2022/09/03 03:44:48;;;;;;;0.65;0.60;;;14.60;99.90;;;;;;5022110;28;20094;-71
2022/09/03 03:47:15;;;;;;;1.15;0.60;;;14.60;99.90;;;;;;5022354;28;20037;-72
2022/09/03 03:49:41;;;;;;;0.52;0.52;;;14.60;99.90;;;;;;5022018;28;20048;-73
2022/09/03 03:52:07;;;;;;;1.08;0.73;;;14.60;99.90;;;;;;5022348;28;20037;-76
2022/09/03 03:54:33;;;;;;;0.40;0.40;;;14.60;99.90;;;;;;5005567;28;20052;-70
2022/09/03 03:56:59;;;;;;;0.65;0.60;;;14.60;99.90;;;;;;5037297;28;20052;-70
2022/09/03 03:59:24;;;;;;;0.55;0.55;;;14.50;99.90;;;;;;5020592;28;20471;-76
2022/09/03 04:01:53;;;;;;;1.00;0.60;;;14.50;99.90;;;;;;5020607;28;20488;-74
2022/09/03 04:04:18;;;;;;;0.65;0.52;;;14.50;99.90;;;;;;5036921;28;20397;-73
2022/09/03 04:06:44;;;;;;;2.38;0.60;;;14.50;99.90;;;;;;5020727;28;20071;-76
2022/09/03 04:09:10;;;;;;;2.45;0.70;;;14.40;99.90;;;;;;5004431;28;20098;-74
2022/09/03 04:11:35;;;;;;;1.15;0.68;;;14.40;99.90;;;;;;5004266;28;20033;-71
2022/09/03 04:14:01;;;;;;;0.60;0.60;;;14.30;99.90;;;;;;5004371;28;20044;-73
2022/09/03 04:16:28;;;;;;;1.13;0.70;;;14.30;99.90;;;;;;5020394;28;20131;-72
2022/09/03 04:18:55;;;;;;;0.80;0.50;;;14.30;99.90;;;;;;5036729;28;20064;-70
2022/09/03 04:21:23;;;;;;;2.55;0.73;;;14.20;99.90;;;;;;5036803;28;20040;-72
2022/09/03 04:23:50;;;;;;;0.93;0.73;;;14.20;99.90;;;;;;5036690;28;20128;-71
2022/09/03 04:26:23;;;;;;;0.80;0.70;;;14.20;99.90;;;;;;5020512;28;20087;-70
2022/09/03 04:28:49;;;;;;;1.50;0.63;;;14.10;99.90;;;;;;5036609;28;20067;-74
2022/09/03 04:31:16;;;;;;;1.00;0.70;;;14.00;99.90;;;;;;5019795;28;20044;-73
2022/09/03 04:33:42;;;;;;;0.70;0.70;;;14.00;99.90;;;;;;5036589;28;20040;-71
2022/09/03 04:36:17;;;;;;;1.63;0.90;;;13.90;99.90;;;;;;5036372;28;20056;-76
2022/09/03 04:38:45;;;;;;;0.68;0.63;;;13.90;99.90;;;;;;5036507;28;20032;-72
2022/09/03 04:41:16;;;;;;;0.85;0.70;;;13.80;99.90;;;;;;5036487;28;20051;-72
2022/09/03 04:43:42;;;;;;;;;;;13.80;99.90;;;;;;5020092;28;20041;-69
2022/09/03 04:46:09;;;;;;;0.60;0.60;;;13.80;99.90;;;;;;5019841;28;20003;-76
2022/09/03 04:48:36;;;;;;;1.20;0.70;;;13.70;99.90;;;;;;5003523;28;20045;-70
2022/09/03 04:51:05;;;;;;;1.48;0.90;;;13.70;99.90;;;;;;5036511;28;20029;-75
2022/09/03 04:53:32;;;;;;;1.25;0.82;;;13.60;99.90;;;;;;5036007;28;20051;-74
2022/09/03 04:55:58;;;;;;;2.33;0.90;;;13.60;99.90;;;;;;4997739;28;1107589;-76
2022/09/03 04:58:24;;;;;;;1.08;0.85;;;13.60;99.90;;;;;;5020661;28;20490;-74
2022/09/03 05:00:49;;;;;;;1.13;0.70;;;13.90;99.90;;;;;;5037185;28;20049;-70
2022/09/03 05:03:15;;;;;;;1.88;0.88;;;13.50;99.90;;;;;;5020671;28;20484;-75
2022/09/03 05:05:41;;;;;;;1.40;0.88;;;13.50;99.90;;;;;;5020659;28;20120;-73
2022/09/03 05:08:06;;;;;;;2.03;1.02;;;13.50;99.90;;;;;;5020578;28;20408;-74
2022/09/03 05:10:32;;;;;;;1.20;0.85;;;13.50;99.90;;;;;;5037009;28;20049;-76
2022/09/03 05:13:04;;;;;;;1.20;1.00;;;13.50;99.90;;;;;;5020454;28;20048;-69
2022/09/03 05:15:31;;;;;;;0.63;0.63;;;13.50;99.90;;;;;;5036825;28;20037;-76
2022/09/03 05:18:01;;;;;;;1.08;0.90;;;13.40;99.90;;;;;;5036863;28;20045;-76
2022/09/03 05:20:29;;;;;;;1.27;0.85;;;13.50;99.90;;;;;;5037021;28;20492;-74
2022/09/03 05:22:56;;;;;;;2.60;1.17;;;13.50;99.90;;;;;;5003969;28;20531;-72
2022/09/03 05:25:22;;;;;;;1.20;0.80;;;13.50;99.90;;;;;;5020515;28;20439;-73
2022/09/03 05:27:49;;;;;;;1.73;1.00;;;13.50;99.90;;;;;;5036685;28;20120;-70
2022/09/03 05:30:15;;;;;;;3.10;1.00;;;13.50;99.90;;;;;;5020118;28;20108;-73
2022/09/03 05:32:41;;;;;;;1.42;0.95;;;13.50;99.90;;;;;;5036569;28;20075;-72
2022/09/03 05:35:09;;;;;;;2.60;0.85;;;13.50;99.90;;;;;;5036816;28;20036;-70
2022/09/03 05:37:36;;;;;;;1.25;0.80;;;13.50;99.90;;;;;;5036609;28;20454;-70
2022/09/03 05:40:02;;;;;;;1.38;0.93;;;13.70;99.90;;;;;;5004249;28;20396;-73
2022/09/03 05:42:29;;;;;;;2.20;1.00;;;13.50;99.90;;;;;;5019298;28;20059;-69
2022/09/03 05:44:56;;;;;;;2.72;1.20;;;13.60;99.90;;;;;;5036198;28;20101;-74
2022/09/03 05:47:21;;;;;;;0.90;0.70;;;13.60;99.90;;;;;;5019786;28;20037;-70
2022/09/03 05:49:47;;;;;;;1.13;1.02;;;13.60;99.90;;;;;;5019782;28;20424;-75
2022/09/03 05:52:13;;;;;;;2.20;1.10;;;13.70;99.90;;;;;;5003422;28;20467;-71
2022/09/03 05:54:38;;;;;;;1.42;1.02;;;13.70;99.90;;;;;;5019928;28;20558;-76
2022/09/03 05:57:04;;;;;;;1.20;0.90;;;13.80;99.90;;;;;;4987168;28;20106;-73
2022/09/03 05:59:30;;;;;;;2.45;1.15;;;13.80;99.90;;;;;;5019754;28;20128;-69
2022/09/03 06:01:56;;;;;;;1.80;1.10;;;13.90;99.90;;;;;;5003097;28;20088;-76
2022/09/03 06:04:21;;;;;;;1.88;1.05;;;13.90;99.90;;;;;;5036228;28;20389;-77
2022/09/03 06:06:47;;;;;;;1.60;1.00;;;13.90;99.90;;;;;;5019399;28;20040;-70
2022/09/03 06:09:17;;;;;;;2.03;1.10;;;14.00;99.90;;;;;;5019782;28;20040;-76
2022/09/03 06:11:44;;;;;;;1.80;1.17;;;14.00;99.90;;;;;;5019248;28;20439;-72
2022/09/03 06:14:11;;;;;;;1.42;0.88;;;14.10;99.90;;;;;;5019575;28;20040;-73
2022/09/03 06:16:42;;;;;;;1.70;1.10;;;14.10;99.90;;;;;;5053597;28;20400;-76
2022/09/03 06:19:09;;;;;;;1.67;0.95;;;14.10;99.90;;;;;;5035781;28;20125;-74
2022/09/03 06:21:41;;;;;;;1.90;0.98;;;14.10;99.90;;;;;;5018975;28;20076;-73
2022/09/03 06:24:13;;;;;;;1.25;0.90;;;14.10;99.90;;;;;;5035663;28;20048;-70
2022/09/03 06:26:39;;;;;;;3.80;1.35;;;14.10;99.90;;;;;;5019304;28;20094;-69
2022/09/03 06:29:05;;;;;;;2.33;1.00;;;14.20;1.00;;;;;;5035367;28;20045;-72
2022/09/03 06:31:30;;;;;;;1.33;0.95;;;14.20;1.00;;;;;;5019259;28;20377;-74
2022/09/03 06:33:56;;;;;;;1.45;0.80;;;14.40;1.00;;;;;;5019225;28;20155;-73
2022/09/03 06:36:23;;;;;;;1.35;0.90;;;14.50;1.00;;;;;;5019290;28;20080;-73
2022/09/03 06:38:54;;;;;;;1.50;1.00;;;14.60;1.00;;;;;;5018952;28;20408;-76
2022/09/03 06:41:25;;;;;;;1.63;1.02;;;14.70;1.00;;;;;;5035168;28;20170;-73
2022/09/03 06:44:11;;;;;;;2.05;1.15;;;14.90;1.00;;;;;;5035155;28;20064;-72
2022/09/03 06:46:41;;;;;;;3.38;1.50;;;15.00;1.00;;;;;;5018973;28;20049;-73
2022/09/03 06:49:07;;;;;;;2.05;1.30;;;15.30;1.00;;;;;;5018741;28;20056;-75
2022/09/03 06:51:33;;;;;;;3.88;1.10;;;15.40;1.00;;;;;;5035122;28;20040;-72
2022/09/03 06:54:05;;;;;;;2.70;1.30;;;15.50;1.00;;;;;;5035151;28;20033;-75
2022/09/03 06:56:31;;;;;;;1.58;1.00;;;15.60;1.00;;;;;;5018558;28;20057;-75
2022/09/03 06:58:59;;;;;;;1.52;0.73;;;15.80;1.00;;;;;;5034821;28;20033;-70
2022/09/03 07:01:29;;;;;;;1.80;1.30;;;15.90;1.00;;;;;;5018487;28;20037;-74
2022/09/03 07:03:56;;;;;;;;;;;16.00;1.00;;;;;;5035278;28;20041;-72
2022/09/03 07:06:26;;;;;;;1.70;0.98;;;16.10;1.00;;;;;;5034874;28;19964;-72
2022/09/03 07:08:53;;;;;;;1.08;0.82;;;16.30;1.00;;;;;;5035159;28;20044;-76
2022/09/03 07:11:22;;;;;;;0.90;0.77;;;16.40;1.00;;;;;;5019203;28;20313;-73
2022/09/03 07:13:50;;;;;;;2.40;1.00;;;16.50;1.00;;;;;;5034722;28;20079;-70
2022/09/03 07:16:27;;;;;;;0.85;0.68;;;16.70;1.00;;;;;;5018514;28;20044;-73
2022/09/03 07:18:54;;;;;;;1.85;0.95;;;16.80;1.00;;;;;;5034800;28;20041;-76
2022/09/03 07:21:25;;;;;;;1.23;0.90;;;16.90;1.00;;;;;;5034689;28;20045;-72
2022/09/03 07:23:52;;;;;;;2.22;1.10;;;17.00;1.00;;;;;;5034701;28;20500;-75
2022/09/03 07:26:24;;;;;;;1.40;0.90;;;17.10;1.00;;;;;;5034767;28;20056;-70
2022/09/03 07:28:50;;;;;;;1.25;1.00;;;17.20;1.00;;;;;;5034815;28;20400;-70
2022/09/03 07:31:34;;;;;;;2.55;0.80;;;17.30;1.00;;;;;;5018418;28;20033;-71
2022/09/03 07:34:04;;;;;;;1.98;0.90;;;17.40;1.00;;;;;;5034706;28;20044;-73
2022/09/03 07:36:45;;;;;;;1.92;1.02;;;17.40;1.00;;;;;;5035116;28;20049;-70
2022/09/03 07:39:12;;;;;;;;;;;17.50;1.00;;;;;;5035208;28;20120;-72
2022/09/03 07:41:42;;;;;;;0.82;0.70;;;17.60;1.00;;;;;;5034733;28;19921;-71
2022/09/03 07:44:07;;;;;;;1.38;0.80;;;17.70;1.00;;;;;;5034670;28;20037;-68
2022/09/03 07:46:35;;;;;;;1.35;0.70;;;17.80;1.00;;;;;;5034695;28;20041;-71
2022/09/03 07:49:01;;;;;;;0.70;0.70;;;17.90;1.00;;;;;;5034554;28;20043;-72
2022/09/03 07:51:31;;;;;;;0.65;0.63;;;18.00;1.00;;;;;;5034557;28;20491;-76
2022/09/03 07:53:58;;;;;;;1.90;0.73;;;18.10;1.00;;;;;;5034571;28;20103;-74
2022/09/03 07:56:25;;;;;;;0.98;0.80;;;18.30;1.00;;;;;;5018239;28;20072;-76
2022/09/03 07:58:52;;;;;;;1.05;0.63;;;18.30;1.00;;;;;;5035142;28;20080;-69
2022/09/03 08:01:19;;;;;;;1.67;0.90;;;18.40;1.00;;;;;;5018170;28;20044;-77
2022/09/03 08:03:47;;;;;;;1.20;0.73;;;18.50;1.00;;;;;;5034587;28;20041;-76
2022/09/03 08:06:14;;;;;;;1.48;1.00;;;18.60;1.00;;;;;;5019676;28;20068;-77
2022/09/03 08:08:46;;;;;;;0.93;0.80;;;18.80;1.00;;;;;;5022068;28;20423;-69
2022/09/03 08:11:20;;;;;;;0.60;0.60;;;18.90;1.00;;;;;;5021784;28;20044;-70
2022/09/03 08:14:01;;;;;;;1.27;0.77;;;19.00;1.00;;;;;;5039133;28;20049;-73
2022/09/03 08:16:29;;;;;;;1.90;1.00;;;19.10;1.00;;;;;;5038012;28;20055;-78
2022/09/03 08:18:55;;;;;;;0.85;0.73;;;19.20;1.00;;;;;;5038653;28;20045;-74
2022/09/03 08:21:22;;;;;;;1.02;0.70;;;19.30;1.00;;;;;;5021547;28;20037;-73
2022/09/03 08:23:50;;;;;;;0.98;0.70;;;19.40;1.00;;;;;;5038267;28;20124;-73
2022/09/03 08:26:19;;;;;;;0.75;0.60;;;19.60;1.00;;;;;;5021342;28;20095;-73
2022/09/03 08:28:45;;;;;;;0.50;0.50;;;19.60;1.00;;;;;;5038718;28;20124;-76
2022/09/03 08:31:13;;;;;;;1.73;0.90;;;19.70;1.00;;;;;;5021461;28;20124;-73
2022/09/03 08:33:44;;;;;;;1.20;0.75;;;19.80;1.00;;;;;;5021235;28;20124;-71
2022/09/03 08:36:13;;;;;;;1.13;0.73;;;19.90;1.00;;;;;;5021219;28;20048;-73
2022/09/03 08:38:42;;;;;;;2.47;0.95;;;19.80;1.00;;;;;;5037533;28;20037;-73
2022/09/03 08:41:15;;;;;;;0.95;0.60;;;19.80;1.00;;;;;;5037744;28;20037;-79
2022/09/03 08:43:59;;;;;;;1.08;0.70;;;19.90;1.00;;;;;;5020864;28;20045;-78
2022/09/03 08:46:55;;;;;;;1.08;0.77;;;20.00;1.00;;;;;;5021139;28;20037;-77
2022/09/03 08:49:50;;;;;;;1.15;0.63;;;20.00;1.00;;;;;;5010217;28;20098;-76
2022/09/03 08:52:39;;;;;;;1.23;0.63;;;20.10;1.00;;;;;;5020286;28;20099;-82
2022/09/03 08:55:26;;;;;;;2.47;0.77;;;20.00;1.00;;;;;;5037269;28;20144;-76
2022/09/03 08:58:09;;;;;;;2.08;1.13;;;20.10;1.00;;;;;;5039159;28;20096;-79
2022/09/03 09:01:02;;;;;;;0.70;0.57;;;20.20;1.00;;;;;;5038099;28;20102;-72
2022/09/03 09:04:13;;;;;;;2.17;0.60;;;20.30;1.00;;;;;;5020357;28;20044;-72
2022/09/03 09:07:05;;;;;;;1.02;0.75;;;20.40;1.00;;;;;;4994212;28;20511;-75
2022/09/03 09:09:48;;;;;;;0.70;0.50;;;20.50;91.70;;;;;;5036938;28;20163;-74
2022/09/03 09:12:23;;;;;;;1.42;0.60;;;20.50;99.90;;;;;;5037152;28;20084;-76
2022/09/03 09:14:59;;;;;;;3.42;0.88;;;;;;;;;;5020777;28;20131;-75
2022/09/03 09:17:40;;;;;;;1.05;0.63;;;20.70;99.90;;;;;;5020566;28;20045;-75
2022/09/03 09:20:34;;;;;;;1.88;0.80;;;20.80;1.00;;;;;;5020732;28;20492;-75
2022/09/03 09:23:12;;;;;;;4.18;0.93;;;20.70;1.00;;;;;;5036837;28;20132;-74
2022/09/03 09:25:47;;;;;;;1.02;0.70;;;20.80;2.50;;;;;;5036446;28;20439;-79
2022/09/03 09:28:18;;;;;;;0.45;0.43;;;21.00;1.00;;;;;;5020526;28;20045;-78
2022/09/03 09:30:46;;;;;;;0.73;0.73;;;21.00;1.00;;;;;;5019943;28;20120;-74
2022/09/03 09:33:14;;;;;;;1.13;0.70;;;21.20;21.50;;;;;;5036764;28;20554;-75
2022/09/03 09:35:41;;;;;;;1.02;0.55;;;21.10;1.00;;;;;;5020236;28;20056;-78
2022/09/03 09:38:08;;;;;;;1.27;0.77;;;21.20;1.00;;;;;;5036662;28;20048;-76
2022/09/03 09:40:37;;;;;;;0.50;0.50;;;21.10;1.00;;;;;;5019862;28;20037;-76
2022/09/03 09:43:06;;;;;;;0.88;0.50;;;21.40;1.00;;;;;;5019784;28;20083;-75
2022/09/03 09:45:33;;;;;;;1.47;0.80;;;21.60;99.90;;;;;;5020184;28;20037;-78
2022/09/03 09:48:01;;;;;;;0.90;0.73;;;21.70;99.90;;;;;;5021813;28;20059;-81
2022/09/03 09:50:28;;;;;;;1.02;0.60;;;;;;;;;;5021108;28;20033;-80
2022/09/03 09:53:13;;;;;;;0.90;0.80;;;21.80;99.90;;;;;;5037174;28;20511;-78
2022/09/03 09:55:48;;;;;;;0.60;0.45;;;;;;;;;;5038258;28;20557;-82
2022/09/03 09:58:14;;;;;;;0.52;0.52;;;;;;;;;;5020464;28;20079;-79
2022/09/03 10:00:41;;;;;;;0.85;0.75;;;22.20;1.00;;;;;;5021688;28;20049;-78
2022/09/03 10:03:12;;;;;;;1.75;0.55;;;22.30;1.00;;;;;;5019645;28;20128;-74
2022/09/03 10:05:39;;;;;;;1.20;0.75;;;22.60;99.90;;;;;;5019733;28;20561;-77
2022/09/03 10:08:25;;;;;;;1.25;0.70;;;22.70;1.00;;;;;;5003573;28;20041;-76
2022/09/03 10:10:51;;;;;;;1.85;0.60;;;22.80;1.00;;;;;;5018803;28;20083;-74
2022/09/03 10:13:35;;;;;;;1.52;0.70;;;22.80;90.40;;;;;;5004321;28;20448;-80
2022/09/03 10:16:04;;;;;;;1.20;0.65;;;;;;;;;;5020450;28;20500;-79
2022/09/03 10:18:44;;;;;;;1.15;0.70;;;;;;;;;;5020182;28;20048;-75
2022/09/03 10:21:12;;;;;;;0.55;0.47;;;23.00;1.00;;;;;;5019627;28;20036;-78
2022/09/03 10:23:59;;;;;;;0.55;0.55;;;23.10;1.00;;;;;;5019160;28;20083;-77
2022/09/03 10:26:29;;;;;;;0.65;0.50;;;23.20;1.00;;;;;;5019236;28;20033;-79
2022/09/03 10:29:01;;;;;;;0.50;0.50;;;23.20;1.00;;;;;;5020266;28;20496;-76
2022/09/03 10:31:49;;;;;;;0.60;0.50;;;23.30;1.00;;;;;;5018994;28;20041;-79
2022/09/03 10:34:27;;;;;;;2.95;0.52;;;23.50;1.00;;;;;;5035802;28;20045;-77
2022/09/03 10:37:02;;;;;;;0.82;0.60;;;23.40;1.00;;;;;;5019370;28;20033;-79
2022/09/03 10:39:44;;;;;;;0.65;0.50;;;23.40;1.00;;;;;;5018816;28;20467;-80
2022/09/03 10:42:36;;;;;;;0.40;0.40;;;23.50;1.00;;;;;;5019820;28;20187;-80
2022/09/03 10:45:17;;;;;;;1.08;0.60;;;23.50;1.00;;;;;;5035421;28;20045;-76
2022/09/03 10:48:29;;;;;;;0.50;0.50;;;23.50;1.00;;;;;;5035444;28;20040;-76
2022/09/03 10:51:05;;;;;;;0.82;0.55;;;23.60;1.00;;;;;;4956019;28;20048;-76
2022/09/03 10:53:55;;;;;;;1.42;0.60;;;23.50;1.00;;;;;;4941880;28;20145;-75
2022/09/03 10:56:38;;;;;;;2.28;0.70;;;23.50;1.00;;;;;;4999481;28;20052;-79
2022/09/03 10:59:10;;;;;;;0.68;0.60;;;23.60;1.00;;;;;;5035357;28;20110;-78
2022/09/03 11:01:46;;;;;;;0.75;0.40;;;23.60;1.00;;;;;;5019402;28;20507;-80
2022/09/03 11:04:47;;;;;;;0.68;0.52;;;23.50;1.00;;;;;;5018792;28;20079;-76
2022/09/03 11:07:18;;;;;;;1.20;0.68;;;23.50;1.00;;;;;;4968958;28;20045;-76
2022/09/03 11:10:02;;;;;;;1.30;0.75;;;23.60;1.00;;;;;;5034860;28;20041;-75
2022/09/03 11:12:37;;;;;;;0.57;0.57;;;23.60;1.00;;;;;;5034899;28;20080;-76
2022/09/03 11:15:35;;;;;;;0.93;0.60;;;23.70;1.00;;;;;;5002193;28;20385;-82
2022/09/03 11:18:13;;;;;;;0.65;0.47;;;23.70;1.00;;;;;;4976042;28;20128;-74
2022/09/03 11:20:41;;;;;;;0.60;0.55;;;23.70;1.00;;;;;;5034743;28;20119;-77
2022/09/03 11:23:11;;;;;;;0.85;0.60;;;23.80;1.00;;;;;;5018630;28;20411;-71
2022/09/03 11:25:45;;;;;;;0.88;0.70;;;23.80;1.00;;;;;;5034684;28;20052;-73
2022/09/03 11:28:19;;;;;;;1.10;0.88;;;23.80;1.00;;;;;;5018655;28;20554;-72
2022/09/03 11:31:24;;;;;;;1.13;0.50;;;23.70;1.00;;;;;;5018352;28;20471;-74
2022/09/03 11:34:18;;;;;;;1.15;0.60;;;23.90;1.00;;;;;;5035071;28;20080;-74
2022/09/03 11:36:44;;;;;;;0.57;0.43;;;24.00;1.00;;;;;;5033966;28;20044;-80
2022/09/03 11:39:38;;;;;;;1.13;0.70;;;24.00;1.00;;;;;;5002634;28;20131;-75
2022/09/03 11:42:22;;;;;;;0.80;0.60;;;24.00;1.00;;;;;;5021021;28;20426;-74
2022/09/03 11:44:52;;;;;;;0.60;0.45;;;24.10;1.00;;;;;;5022431;28;20041;-72
2022/09/03 11:47:18;;;;;;;0.35;0.35;;;24.20;1.00;;;;;;5022438;28;20041;-74
2022/09/03 11:49:49;;;;;;;1.13;0.57;;;24.30;1.00;;;;;;5022415;28;20151;-73
2022/09/03 11:52:39;;;;;;;0.50;0.47;;;24.50;99.90;;;;;;5022242;28;20540;-76
2022/09/03 11:55:06;;;;;;;1.90;0.70;;;24.40;64.40;;;;;;5038442;28;20045;-75
2022/09/03 11:57:40;;;;;;;0.98;0.50;;;24.50;99.90;;;;;;5038071;28;20060;-72
2022/09/03 12:00:20;;;;;;;1.77;0.70;;;24.60;99.90;;;;;;5038202;28;20131;-73
2022/09/03 12:03:00;;;;;;;1.58;0.60;;;24.60;1.00;;;;;;5038525;28;20037;-74
2022/09/03 12:05:44;;;;;;;1.00;0.80;;;24.40;1.00;;;;;;5038095;28;20047;-69
2022/09/03 12:08:18;;;;;;;0.63;0.60;;;24.40;1.00;;;;;;5038151;28;20091;-72
2022/09/03 12:10:44;;;;;;;0.50;0.50;;;24.40;1.00;;;;;;5038367;28;20087;-74
2022/09/03 12:13:22;;;;;;;0.63;0.50;;;24.50;1.00;;;;;;5038104;28;20081;-73
2022/09/03 12:16:04;;;;;;;0.73;0.68;;;24.50;1.00;;;;;;5021605;28;20075;-75
2022/09/03 12:18:32;;;;;;;2.97;0.68;;;24.60;1.00;;;;;;5021388;28;20045;-75
2022/09/03 12:20:59;;;;;;;0.40;0.40;;;24.70;99.90;;;;;;5021586;28;20077;-75
2022/09/03 12:23:33;;;;;;;0.82;0.50;;;24.70;99.90;;;;;;5021403;28;20053;-72
2022/09/03 12:26:05;;;;;;;0.77;0.60;;;24.70;99.90;;;;;;5037725;28;20037;-75
2022/09/03 12:28:36;;;;;;;2.53;0.70;;;24.80;99.90;;;;;;5037729;28;20041;-73
2022/09/03 12:31:20;;;;;;;0.90;0.65;;;24.80;99.90;;;;;;5037711;28;20033;-74
2022/09/03 12:34:06;;;;;;;0.40;0.40;;;24.70;1.00;;;;;;5023167;28;20396;-74
2022/09/03 12:36:48;;;;;;;2.30;0.60;;;24.90;1.00;;;;;;5021170;28;20045;-78
2022/09/03 12:39:19;;;;;;;0.57;0.43;;;24.60;1.00;;;;;;5037796;28;20128;-76
2022/09/03 12:42:03;;;;;;;1.13;0.68;;;24.60;1.00;;;;;;5021255;28;20485;-72
2022/09/03 12:44:39;;;;;;;0.73;0.50;;;24.60;1.00;;;;;;5037502;28;20443;-74
2022/09/03 12:47:09;;;;;;;1.70;0.50;;;24.60;1.00;;;;;;5037724;28;20502;-74
2022/09/03 12:49:43;;;;;;;1.05;0.60;;;24.60;1.00;;;;;;5037684;28;20450;-75
2022/09/03 12:52:31;;;;;;;1.05;0.50;;;24.60;1.00;;;;;;5020962;28;20041;-76
2022/09/03 12:55:40;;;;;;;0.40;0.40;;;24.70;1.00;;;;;;5037677;28;20048;-81
2022/09/03 12:58:08;;;;;;;0.47;0.43;;;24.80;1.00;;;;;;4957884;28;20059;-82
2022/09/03 13:00:38;;;;;;;0.82;0.60;;;24.90;1.00;;;;;;4942147;28;20178;-77
2022/09/03 13:03:15;;;;;;;0.57;0.40;;;24.90;99.90;;;;;;4992727;28;20064;-77
2022/09/03 13:05:49;;;;;;;1.45;0.73;;;24.80;99.90;;;;;;5037367;28;20056;-78
2022/09/03 13:08:27;;;;;;;0.70;0.55;;;24.80;99.90;;;;;;5020980;28;20053;-80
2022/09/03 13:10:56;;;;;;;1.00;0.50;;;24.80;99.90;;;;;;5020558;28;20052;-73
2022/09/03 13:13:36;;;;;;;1.03;0.50;;;24.70;99.90;;;;;;5037062;28;20405;-75
2022/09/03 13:16:08;;;;;;;1.20;0.45;;;24.70;99.90;;;;;;5020925;28;20055;-75
2022/09/03 13:18:42;;;;;;;0.60;0.45;;;24.80;99.90;;;;;;5036942;28;20403;-72
2022/09/03 13:21:20;;;;;;;0.85;0.47;;;24.80;99.90;;;;;;5036758;28;20037;-75
2022/09/03 13:24:24;;;;;;;1.10;0.47;;;24.70;99.90;;;;;;5020201;28;20151;-76
2022/09/03 13:27:00;;;;;;;1.02;0.60;;;24.90;99.90;;;;;;5037155;28;20044;-78
2022/09/03 13:29:38;;;;;;;0.95;0.75;;;24.80;99.90;;;;;;5036738;28;20041;-81